sensor_id;sensor_type;location;lat;lon;timestamp;P1;durP1;ratioP1;P2;durP2;ratioP2
22336;SDS011;14992;50.844;4.418;2023-10-31T00:01:31;17.52;;;8.70;;
22336;SDS011;14992;50.844;4.418;2023-10-31T00:04:00;18.42;;;8.65;;
22336;SDS011;14992;50.844;4.418;2023-10-31T00:06:29;18.30;;;8.77;;
22336;SDS011;14992;50.844;4.418;2023-10-31T00:08:59;18.80;;;8.23;;
22336;SDS011;14992;50.844;4.418;2023-10-31T00:11:28;17.25;;;8.25;;
22336;SDS011;14992;50.844;4.418;2023-10-31T00:13:57;17.20;;;9.13;;
22336;SDS011;14992;50.844;4.418;2023-10-31T00:16:26;15.10;;;7.93;;
22336;SDS011;14992;50.844;4.418;2023-10-31T00:18:54;12.38;;;7.47;;
22336;SDS011;14992;50.844;4.418;2023-10-31T00:21:24;13.90;;;7.95;;
22336;SDS011;14992;50.844;4.418;2023-10-31T00:23:52;15.02;;;7.15;;
22336;SDS011;14992;50.844;4.418;2023-10-31T00:26:22;12.30;;;7.10;;
22336;SDS011;14992;50.844;4.418;2023-10-31T00:28:52;14.43;;;7.20;;
22336;SDS011;14992;50.844;4.418;2023-10-31T00:31:21;13.75;;;7.82;;
22336;SDS011;14992;50.844;4.418;2023-10-31T00:33:50;13.95;;;7.47;;
22336;SDS011;14992;50.844;4.418;2023-10-31T00:36:19;12.15;;;6.13;;
22336;SDS011;14992;50.844;4.418;2023-10-31T00:38:48;11.10;;;5.55;;
22336;SDS011;14992;50.844;4.418;2023-10-31T00:41:16;11.80;;;5.75;;
22336;SDS011;14992;50.844;4.418;2023-10-31T00:43:46;11.38;;;5.80;;
22336;SDS011;14992;50.844;4.418;2023-10-31T00:46:15;9.02;;;5.68;;
22336;SDS011;14992;50.844;4.418;2023-10-31T00:48:44;8.85;;;5.65;;
22336;SDS011;14992;50.844;4.418;2023-10-31T00:51:13;8.15;;;5.30;;
22336;SDS011;14992;50.844;4.418;2023-10-31T00:53:41;8.63;;;4.68;;
22336;SDS011;14992;50.844;4.418;2023-10-31T00:56:10;8.32;;;4.85;;
22336;SDS011;14992;50.844;4.418;2023-10-31T00:58:39;7.00;;;5.03;;
22336;SDS011;14992;50.844;4.418;2023-10-31T01:01:09;8.95;;;6.05;;
22336;SDS011;14992;50.844;4.418;2023-10-31T01:03:39;8.98;;;5.05;;
22336;SDS011;14992;50.844;4.418;2023-10-31T01:06:08;8.20;;;5.00;;
22336;SDS011;14992;50.844;4.418;2023-10-31T01:08:36;7.93;;;5.43;;
22336;SDS011;14992;50.844;4.418;2023-10-31T01:11:05;9.38;;;4.95;;
22336;SDS011;14992;50.844;4.418;2023-10-31T01:13:34;10.80;;;6.57;;
22336;SDS011;14992;50.844;4.418;2023-10-31T01:16:03;7.10;;;4.47;;
22336;SDS011;14992;50.844;4.418;2023-10-31T01:18:33;8.02;;;5.22;;
22336;SDS011;14992;50.844;4.418;2023-10-31T01:21:02;9.75;;;4.93;;
22336;SDS011;14992;50.844;4.418;2023-10-31T01:23:31;6.78;;;5.03;;
22336;SDS011;14992;50.844;4.418;2023-10-31T01:26:00;10.32;;;5.50;;
22336;SDS011;14992;50.844;4.418;2023-10-31T01:28:29;9.45;;;5.47;;
22336;SDS011;14992;50.844;4.418;2023-10-31T01:30:58;12.10;;;5.65;;
22336;SDS011;14992;50.844;4.418;2023-10-31T01:33:27;6.15;;;4.72;;
22336;SDS011;14992;50.844;4.418;2023-10-31T01:35:57;8.18;;;5.28;;
22336;SDS011;14992;50.844;4.418;2023-10-31T01:38:26;8.02;;;5.80;;
22336;SDS011;14992;50.844;4.418;2023-10-31T01:40:55;8.65;;;5.00;;
22336;SDS011;14992;50.844;4.418;2023-10-31T01:43:30;8.65;;;5.03;;
22336;SDS011;14992;50.844;4.418;2023-10-31T01:46:00;6.72;;;4.82;;
22336;SDS011;14992;50.844;4.418;2023-10-31T01:48:30;9.98;;;6.35;;
22336;SDS011;14992;50.844;4.418;2023-10-31T01:51:02;7.60;;;5.13;;
22336;SDS011;14992;50.844;4.418;2023-10-31T01:53:32;6.05;;;4.60;;
22336;SDS011;14992;50.844;4.418;2023-10-31T01:56:02;9.82;;;5.38;;
22336;SDS011;14992;50.844;4.418;2023-10-31T01:58:33;7.47;;;5.65;;
22336;SDS011;14992;50.844;4.418;2023-10-31T02:01:03;6.32;;;5.10;;
22336;SDS011;14992;50.844;4.418;2023-10-31T02:03:34;7.45;;;4.75;;
22336;SDS011;14992;50.844;4.418;2023-10-31T02:06:04;6.68;;;4.82;;
22336;SDS011;14992;50.844;4.418;2023-10-31T02:08:33;7.25;;;4.70;;
22336;SDS011;14992;50.844;4.418;2023-10-31T02:11:02;8.50;;;5.43;;
22336;SDS011;14992;50.844;4.418;2023-10-31T02:13:32;8.88;;;5.18;;
22336;SDS011;14992;50.844;4.418;2023-10-31T02:16:01;6.63;;;4.82;;
22336;SDS011;14992;50.844;4.418;2023-10-31T02:18:30;8.40;;;5.20;;
22336;SDS011;14992;50.844;4.418;2023-10-31T02:20:59;7.40;;;4.85;;
22336;SDS011;14992;50.844;4.418;2023-10-31T02:23:29;8.57;;;5.53;;
22336;SDS011;14992;50.844;4.418;2023-10-31T02:25:58;7.43;;;4.93;;
22336;SDS011;14992;50.844;4.418;2023-10-31T02:28:27;8.02;;;4.90;;
22336;SDS011;14992;50.844;4.418;2023-10-31T02:30:56;7.00;;;4.72;;
22336;SDS011;14992;50.844;4.418;2023-10-31T02:33:24;6.30;;;5.40;;
22336;SDS011;14992;50.844;4.418;2023-10-31T02:35:53;6.75;;;5.25;;
22336;SDS011;14992;50.844;4.418;2023-10-31T02:38:22;7.85;;;5.00;;
22336;SDS011;14992;50.844;4.418;2023-10-31T02:40:52;9.10;;;4.88;;
22336;SDS011;14992;50.844;4.418;2023-10-31T02:43:21;6.32;;;4.95;;
22336;SDS011;14992;50.844;4.418;2023-10-31T02:45:51;7.50;;;4.75;;
22336;SDS011;14992;50.844;4.418;2023-10-31T02:48:21;7.15;;;5.03;;
22336;SDS011;14992;50.844;4.418;2023-10-31T02:50:50;6.60;;;5.30;;
22336;SDS011;14992;50.844;4.418;2023-10-31T02:53:19;7.00;;;5.10;;
22336;SDS011;14992;50.844;4.418;2023-10-31T02:55:48;7.22;;;5.10;;
22336;SDS011;14992;50.844;4.418;2023-10-31T02:58:18;8.18;;;5.70;;
22336;SDS011;14992;50.844;4.418;2023-10-31T03:00:47;6.88;;;5.10;;
22336;SDS011;14992;50.844;4.418;2023-10-31T03:03:17;6.90;;;5.03;;
22336;SDS011;14992;50.844;4.418;2023-10-31T03:05:45;8.13;;;4.65;;
22336;SDS011;14992;50.844;4.418;2023-10-31T03:08:15;8.07;;;5.03;;
22336;SDS011;14992;50.844;4.418;2023-10-31T03:10:47;8.57;;;5.20;;
22336;SDS011;14992;50.844;4.418;2023-10-31T03:13:19;9.25;;;5.22;;
22336;SDS011;14992;50.844;4.418;2023-10-31T03:15:48;6.82;;;5.05;;
22336;SDS011;14992;50.844;4.418;2023-10-31T03:18:17;8.70;;;5.63;;
22336;SDS011;14992;50.844;4.418;2023-10-31T03:20:47;8.93;;;5.63;;
22336;SDS011;14992;50.844;4.418;2023-10-31T03:23:15;10.55;;;6.85;;
22336;SDS011;14992;50.844;4.418;2023-10-31T03:25:45;9.63;;;6.65;;
22336;SDS011;14992;50.844;4.418;2023-10-31T03:28:17;9.52;;;6.40;;
22336;SDS011;14992;50.844;4.418;2023-10-31T03:30:50;11.60;;;6.32;;
22336;SDS011;14992;50.844;4.418;2023-10-31T03:33:19;12.55;;;6.55;;
22336;SDS011;14992;50.844;4.418;2023-10-31T03:35:48;13.07;;;7.32;;
22336;SDS011;14992;50.844;4.418;2023-10-31T03:38:17;12.30;;;7.47;;
22336;SDS011;14992;50.844;4.418;2023-10-31T03:40:46;10.85;;;7.07;;
22336;SDS011;14992;50.844;4.418;2023-10-31T03:43:14;10.40;;;7.22;;
22336;SDS011;14992;50.844;4.418;2023-10-31T03:45:45;9.48;;;6.85;;
22336;SDS011;14992;50.844;4.418;2023-10-31T03:48:14;13.00;;;6.63;;
22336;SDS011;14992;50.844;4.418;2023-10-31T03:50:43;8.75;;;6.40;;
22336;SDS011;14992;50.844;4.418;2023-10-31T03:53:12;11.73;;;6.63;;
22336;SDS011;14992;50.844;4.418;2023-10-31T03:55:41;10.55;;;6.43;;
22336;SDS011;14992;50.844;4.418;2023-10-31T03:58:10;13.68;;;6.22;;
22336;SDS011;14992;50.844;4.418;2023-10-31T04:00:39;9.52;;;6.88;;
22336;SDS011;14992;50.844;4.418;2023-10-31T04:03:10;10.30;;;6.65;;
22336;SDS011;14992;50.844;4.418;2023-10-31T04:05:42;9.98;;;6.63;;
22336;SDS011;14992;50.844;4.418;2023-10-31T04:08:11;12.15;;;7.43;;
22336;SDS011;14992;50.844;4.418;2023-10-31T04:10:39;9.85;;;6.43;;
22336;SDS011;14992;50.844;4.418;2023-10-31T04:13:08;13.82;;;7.97;;
22336;SDS011;14992;50.844;4.418;2023-10-31T04:15:37;11.75;;;7.38;;
22336;SDS011;14992;50.844;4.418;2023-10-31T04:18:06;13.23;;;9.15;;
22336;SDS011;14992;50.844;4.418;2023-10-31T04:20:36;12.05;;;6.72;;
22336;SDS011;14992;50.844;4.418;2023-10-31T04:23:05;11.52;;;6.65;;
22336;SDS011;14992;50.844;4.418;2023-10-31T04:25:33;12.18;;;7.43;;
22336;SDS011;14992;50.844;4.418;2023-10-31T04:28:02;9.98;;;6.85;;
22336;SDS011;14992;50.844;4.418;2023-10-31T04:30:31;11.13;;;7.15;;
22336;SDS011;14992;50.844;4.418;2023-10-31T04:33:00;10.60;;;6.47;;
22336;SDS011;14992;50.844;4.418;2023-10-31T04:35:29;10.75;;;6.30;;
22336;SDS011;14992;50.844;4.418;2023-10-31T04:37:59;11.68;;;7.22;;
22336;SDS011;14992;50.844;4.418;2023-10-31T04:40:28;11.15;;;6.88;;
22336;SDS011;14992;50.844;4.418;2023-10-31T04:42:57;13.55;;;7.00;;
22336;SDS011;14992;50.844;4.418;2023-10-31T04:45:26;13.20;;;7.63;;
22336;SDS011;14992;50.844;4.418;2023-10-31T04:47:55;14.90;;;8.23;;
22336;SDS011;14992;50.844;4.418;2023-10-31T04:50:24;15.18;;;8.00;;
22336;SDS011;14992;50.844;4.418;2023-10-31T04:52:52;12.85;;;7.78;;
22336;SDS011;14992;50.844;4.418;2023-10-31T04:55:22;14.00;;;7.50;;
22336;SDS011;14992;50.844;4.418;2023-10-31T04:57:51;14.88;;;7.95;;
22336;SDS011;14992;50.844;4.418;2023-10-31T05:00:20;13.30;;;7.65;;
22336;SDS011;14992;50.844;4.418;2023-10-31T05:02:49;13.73;;;7.93;;
22336;SDS011;14992;50.844;4.418;2023-10-31T05:05:18;16.40;;;7.72;;
22336;SDS011;14992;50.844;4.418;2023-10-31T05:07:47;13.63;;;7.47;;
22336;SDS011;14992;50.844;4.418;2023-10-31T05:10:16;16.05;;;7.80;;
22336;SDS011;14992;50.844;4.418;2023-10-31T05:12:47;14.82;;;8.27;;
22336;SDS011;14992;50.844;4.418;2023-10-31T05:15:15;14.38;;;8.20;;
22336;SDS011;14992;50.844;4.418;2023-10-31T05:17:44;14.85;;;8.07;;
22336;SDS011;14992;50.844;4.418;2023-10-31T05:20:13;12.48;;;8.40;;
22336;SDS011;14992;50.844;4.418;2023-10-31T05:22:42;13.43;;;8.27;;
22336;SDS011;14992;50.844;4.418;2023-10-31T05:25:11;13.63;;;7.95;;
22336;SDS011;14992;50.844;4.418;2023-10-31T05:27:39;13.48;;;8.02;;
22336;SDS011;14992;50.844;4.418;2023-10-31T05:30:10;15.73;;;8.80;;
22336;SDS011;14992;50.844;4.418;2023-10-31T05:35:09;14.35;;;8.73;;
22336;SDS011;14992;50.844;4.418;2023-10-31T05:37:38;11.35;;;7.60;;
22336;SDS011;14992;50.844;4.418;2023-10-31T05:40:07;14.23;;;7.82;;
22336;SDS011;14992;50.844;4.418;2023-10-31T05:42:37;13.90;;;8.20;;
22336;SDS011;14992;50.844;4.418;2023-10-31T05:45:06;25.13;;;13.55;;
22336;SDS011;14992;50.844;4.418;2023-10-31T05:47:37;14.15;;;8.27;;
22336;SDS011;14992;50.844;4.418;2023-10-31T05:50:06;37.30;;;21.98;;
22336;SDS011;14992;50.844;4.418;2023-10-31T05:52:36;28.33;;;16.23;;
22336;SDS011;14992;50.844;4.418;2023-10-31T05:55:05;17.33;;;10.48;;
22336;SDS011;14992;50.844;4.418;2023-10-31T05:57:34;22.20;;;13.02;;
22336;SDS011;14992;50.844;4.418;2023-10-31T06:00:03;18.60;;;11.05;;
22336;SDS011;14992;50.844;4.418;2023-10-31T06:02:39;17.13;;;9.73;;
22336;SDS011;14992;50.844;4.418;2023-10-31T06:05:08;18.17;;;9.13;;
22336;SDS011;14992;50.844;4.418;2023-10-31T06:07:37;20.73;;;13.20;;
22336;SDS011;14992;50.844;4.418;2023-10-31T06:10:05;33.92;;;20.33;;
22336;SDS011;14992;50.844;4.418;2023-10-31T06:12:35;17.10;;;8.98;;
22336;SDS011;14992;50.844;4.418;2023-10-31T06:15:04;18.27;;;10.00;;
22336;SDS011;14992;50.844;4.418;2023-10-31T06:17:35;15.60;;;10.80;;
22336;SDS011;14992;50.844;4.418;2023-10-31T06:20:06;12.38;;;7.38;;
22336;SDS011;14992;50.844;4.418;2023-10-31T06:22:35;10.27;;;6.57;;
22336;SDS011;14992;50.844;4.418;2023-10-31T06:25:04;11.73;;;6.90;;
22336;SDS011;14992;50.844;4.418;2023-10-31T06:27:34;9.13;;;6.13;;
22336;SDS011;14992;50.844;4.418;2023-10-31T06:30:03;10.18;;;6.13;;
22336;SDS011;14992;50.844;4.418;2023-10-31T06:32:49;9.98;;;6.55;;
22336;SDS011;14992;50.844;4.418;2023-10-31T06:35:20;10.05;;;6.47;;
22336;SDS011;14992;50.844;4.418;2023-10-31T06:37:48;11.43;;;6.38;;
22336;SDS011;14992;50.844;4.418;2023-10-31T06:40:17;10.32;;;6.30;;
22336;SDS011;14992;50.844;4.418;2023-10-31T06:42:46;10.27;;;6.97;;
22336;SDS011;14992;50.844;4.418;2023-10-31T06:45:15;10.45;;;6.60;;
22336;SDS011;14992;50.844;4.418;2023-10-31T06:47:44;12.18;;;5.85;;
22336;SDS011;14992;50.844;4.418;2023-10-31T06:50:12;13.13;;;6.28;;
22336;SDS011;14992;50.844;4.418;2023-10-31T06:52:45;9.05;;;5.68;;
22336;SDS011;14992;50.844;4.418;2023-10-31T06:55:15;9.60;;;6.70;;
22336;SDS011;14992;50.844;4.418;2023-10-31T06:57:43;10.98;;;6.18;;
22336;SDS011;14992;50.844;4.418;2023-10-31T07:00:12;9.25;;;5.25;;
22336;SDS011;14992;50.844;4.418;2023-10-31T07:02:42;11.18;;;6.18;;
22336;SDS011;14992;50.844;4.418;2023-10-31T07:05:10;10.65;;;6.28;;
22336;SDS011;14992;50.844;4.418;2023-10-31T07:07:41;9.15;;;5.75;;
22336;SDS011;14992;50.844;4.418;2023-10-31T07:10:11;9.32;;;5.78;;
22336;SDS011;14992;50.844;4.418;2023-10-31T07:12:40;7.45;;;5.07;;
22336;SDS011;14992;50.844;4.418;2023-10-31T07:15:09;9.48;;;5.93;;
22336;SDS011;14992;50.844;4.418;2023-10-31T07:17:38;9.43;;;5.65;;
22336;SDS011;14992;50.844;4.418;2023-10-31T07:20:07;11.60;;;6.00;;
22336;SDS011;14992;50.844;4.418;2023-10-31T07:22:36;10.13;;;5.63;;
22336;SDS011;14992;50.844;4.418;2023-10-31T07:25:07;11.10;;;6.13;;
22336;SDS011;14992;50.844;4.418;2023-10-31T07:27:37;12.07;;;5.78;;
22336;SDS011;14992;50.844;4.418;2023-10-31T07:30:06;9.73;;;5.25;;
22336;SDS011;14992;50.844;4.418;2023-10-31T07:32:35;7.85;;;5.50;;
22336;SDS011;14992;50.844;4.418;2023-10-31T07:35:04;11.50;;;5.57;;
22336;SDS011;14992;50.844;4.418;2023-10-31T07:37:34;7.53;;;5.47;;
22336;SDS011;14992;50.844;4.418;2023-10-31T07:40:03;8.43;;;5.53;;
22336;SDS011;14992;50.844;4.418;2023-10-31T07:42:33;7.50;;;5.05;;
22336;SDS011;14992;50.844;4.418;2023-10-31T07:45:03;7.47;;;5.20;;
22336;SDS011;14992;50.844;4.418;2023-10-31T07:47:33;7.45;;;5.25;;
22336;SDS011;14992;50.844;4.418;2023-10-31T07:50:01;7.75;;;4.90;;
22336;SDS011;14992;50.844;4.418;2023-10-31T07:52:31;8.10;;;4.82;;
22336;SDS011;14992;50.844;4.418;2023-10-31T07:54:59;7.75;;;5.57;;
22336;SDS011;14992;50.844;4.418;2023-10-31T07:57:28;8.82;;;5.47;;
22336;SDS011;14992;50.844;4.418;2023-10-31T07:59:57;6.30;;;4.70;;
22336;SDS011;14992;50.844;4.418;2023-10-31T08:02:27;8.68;;;4.80;;
22336;SDS011;14992;50.844;4.418;2023-10-31T08:04:56;7.97;;;5.13;;
22336;SDS011;14992;50.844;4.418;2023-10-31T08:07:25;6.43;;;4.45;;
22336;SDS011;14992;50.844;4.418;2023-10-31T08:09:57;7.88;;;5.13;;
22336;SDS011;14992;50.844;4.418;2023-10-31T08:12:25;6.60;;;4.80;;
22336;SDS011;14992;50.844;4.418;2023-10-31T08:14:54;8.38;;;5.05;;
22336;SDS011;14992;50.844;4.418;2023-10-31T08:17:23;8.05;;;4.65;;
22336;SDS011;14992;50.844;4.418;2023-10-31T08:19:53;7.97;;;4.70;;
22336;SDS011;14992;50.844;4.418;2023-10-31T08:22:22;6.22;;;4.63;;
22336;SDS011;14992;50.844;4.418;2023-10-31T08:24:51;6.43;;;4.35;;
22336;SDS011;14992;50.844;4.418;2023-10-31T08:27:20;7.35;;;4.78;;
22336;SDS011;14992;50.844;4.418;2023-10-31T08:29:48;5.00;;;4.15;;
22336;SDS011;14992;50.844;4.418;2023-10-31T08:32:17;6.43;;;4.68;;
22336;SDS011;14992;50.844;4.418;2023-10-31T08:34:46;7.80;;;4.85;;
22336;SDS011;14992;50.844;4.418;2023-10-31T08:37:16;6.55;;;3.78;;
22336;SDS011;14992;50.844;4.418;2023-10-31T08:39:45;5.57;;;4.15;;
22336;SDS011;14992;50.844;4.418;2023-10-31T08:42:14;7.38;;;3.60;;
22336;SDS011;14992;50.844;4.418;2023-10-31T08:44:42;8.15;;;4.85;;
22336;SDS011;14992;50.844;4.418;2023-10-31T08:47:11;8.50;;;5.13;;
22336;SDS011;14992;50.844;4.418;2023-10-31T08:49:40;5.03;;;3.03;;
22336;SDS011;14992;50.844;4.418;2023-10-31T08:52:09;7.82;;;3.58;;
22336;SDS011;14992;50.844;4.418;2023-10-31T08:54:39;6.32;;;3.83;;
22336;SDS011;14992;50.844;4.418;2023-10-31T08:57:07;11.75;;;5.07;;
22336;SDS011;14992;50.844;4.418;2023-10-31T08:59:36;6.63;;;3.45;;
22336;SDS011;14992;50.844;4.418;2023-10-31T09:02:06;10.63;;;4.90;;
22336;SDS011;14992;50.844;4.418;2023-10-31T09:04:35;5.65;;;3.65;;
22336;SDS011;14992;50.844;4.418;2023-10-31T09:07:04;5.10;;;3.20;;
22336;SDS011;14992;50.844;4.418;2023-10-31T09:09:32;6.57;;;4.22;;
22336;SDS011;14992;50.844;4.418;2023-10-31T09:12:03;8.13;;;3.70;;
22336;SDS011;14992;50.844;4.418;2023-10-31T09:14:32;5.82;;;3.35;;
22336;SDS011;14992;50.844;4.418;2023-10-31T09:17:02;9.55;;;3.25;;
22336;SDS011;14992;50.844;4.418;2023-10-31T09:19:31;6.35;;;3.28;;
22336;SDS011;14992;50.844;4.418;2023-10-31T09:22:00;15.40;;;9.68;;
22336;SDS011;14992;50.844;4.418;2023-10-31T09:24:29;8.93;;;3.67;;
22336;SDS011;14992;50.844;4.418;2023-10-31T09:26:57;7.75;;;3.85;;
22336;SDS011;14992;50.844;4.418;2023-10-31T09:29:28;7.30;;;3.42;;
22336;SDS011;14992;50.844;4.418;2023-10-31T09:31:56;7.25;;;2.83;;
22336;SDS011;14992;50.844;4.418;2023-10-31T09:34:26;5.28;;;2.88;;
22336;SDS011;14992;50.844;4.418;2023-10-31T09:36:55;8.55;;;3.13;;
22336;SDS011;14992;50.844;4.418;2023-10-31T09:39:23;7.80;;;3.17;;
22336;SDS011;14992;50.844;4.418;2023-10-31T09:41:52;7.03;;;3.08;;
22336;SDS011;14992;50.844;4.418;2023-10-31T09:44:21;7.65;;;3.38;;
22336;SDS011;14992;50.844;4.418;2023-10-31T09:46:52;4.18;;;2.70;;
22336;SDS011;14992;50.844;4.418;2023-10-31T09:49:22;6.00;;;3.72;;
22336;SDS011;14992;50.844;4.418;2023-10-31T09:51:51;7.53;;;3.30;;
22336;SDS011;14992;50.844;4.418;2023-10-31T09:54:20;6.25;;;3.15;;
22336;SDS011;14992;50.844;4.418;2023-10-31T09:56:50;10.68;;;4.40;;
22336;SDS011;14992;50.844;4.418;2023-10-31T09:59:19;8.68;;;3.65;;
22336;SDS011;14992;50.844;4.418;2023-10-31T10:01:48;5.82;;;3.20;;
22336;SDS011;14992;50.844;4.418;2023-10-31T10:04:18;6.50;;;3.97;;
22336;SDS011;14992;50.844;4.418;2023-10-31T10:06:51;5.25;;;3.58;;
22336;SDS011;14992;50.844;4.418;2023-10-31T10:09:26;5.47;;;3.35;;
22336;SDS011;14992;50.844;4.418;2023-10-31T10:11:56;9.93;;;3.42;;
22336;SDS011;14992;50.844;4.418;2023-10-31T10:14:27;10.30;;;3.58;;
22336;SDS011;14992;50.844;4.418;2023-10-31T10:16:58;6.05;;;3.47;;
22336;SDS011;14992;50.844;4.418;2023-10-31T10:19:29;9.48;;;3.80;;
22336;SDS011;14992;50.844;4.418;2023-10-31T10:21:58;8.02;;;3.35;;
22336;SDS011;14992;50.844;4.418;2023-10-31T10:24:27;6.03;;;3.25;;
22336;SDS011;14992;50.844;4.418;2023-10-31T10:26:56;10.65;;;4.15;;
22336;SDS011;14992;50.844;4.418;2023-10-31T10:29:25;7.30;;;3.95;;
22336;SDS011;14992;50.844;4.418;2023-10-31T10:31:54;12.75;;;4.90;;
22336;SDS011;14992;50.844;4.418;2023-10-31T10:34:24;11.38;;;5.10;;
22336;SDS011;14992;50.844;4.418;2023-10-31T10:36:54;6.97;;;3.67;;
22336;SDS011;14992;50.844;4.418;2023-10-31T10:39:25;6.88;;;3.53;;
22336;SDS011;14992;50.844;4.418;2023-10-31T10:41:55;12.00;;;4.20;;
22336;SDS011;14992;50.844;4.418;2023-10-31T10:44:29;9.70;;;4.57;;
22336;SDS011;14992;50.844;4.418;2023-10-31T10:47:01;8.82;;;5.20;;
22336;SDS011;14992;50.844;4.418;2023-10-31T10:49:32;10.70;;;4.43;;
22336;SDS011;14992;50.844;4.418;2023-10-31T10:52:10;7.82;;;3.95;;
22336;SDS011;14992;50.844;4.418;2023-10-31T10:54:48;12.82;;;4.38;;
22336;SDS011;14992;50.844;4.418;2023-10-31T10:57:24;8.45;;;3.85;;
22336;SDS011;14992;50.844;4.418;2023-10-31T11:00:02;6.63;;;3.58;;
22336;SDS011;14992;50.844;4.418;2023-10-31T11:02:33;13.82;;;5.40;;
22336;SDS011;14992;50.844;4.418;2023-10-31T11:05:05;14.02;;;5.90;;
22336;SDS011;14992;50.844;4.418;2023-10-31T11:07:37;11.48;;;5.07;;
22336;SDS011;14992;50.844;4.418;2023-10-31T11:10:07;15.32;;;6.13;;
22336;SDS011;14992;50.844;4.418;2023-10-31T11:12:37;13.13;;;5.95;;
22336;SDS011;14992;50.844;4.418;2023-10-31T11:15:07;13.57;;;7.03;;
22336;SDS011;14992;50.844;4.418;2023-10-31T11:17:39;14.63;;;6.57;;
22336;SDS011;14992;50.844;4.418;2023-10-31T11:20:09;14.00;;;6.13;;
22336;SDS011;14992;50.844;4.418;2023-10-31T11:22:43;15.63;;;6.70;;
22336;SDS011;14992;50.844;4.418;2023-10-31T11:25:14;14.05;;;6.65;;
22336;SDS011;14992;50.844;4.418;2023-10-31T11:30:38;17.60;;;10.13;;
22336;SDS011;14992;50.844;4.418;2023-10-31T11:33:11;13.07;;;6.57;;
22336;SDS011;14992;50.844;4.418;2023-10-31T11:35:41;15.82;;;7.00;;
22336;SDS011;14992;50.844;4.418;2023-10-31T11:38:13;14.77;;;6.55;;
22336;SDS011;14992;50.844;4.418;2023-10-31T11:40:58;13.95;;;6.78;;
22336;SDS011;14992;50.844;4.418;2023-10-31T11:46:20;9.85;;;5.82;;
22336;SDS011;14992;50.844;4.418;2023-10-31T11:48:53;12.40;;;6.32;;
22336;SDS011;14992;50.844;4.418;2023-10-31T11:51:24;13.75;;;6.88;;
22336;SDS011;14992;50.844;4.418;2023-10-31T11:53:55;10.88;;;6.10;;
22336;SDS011;14992;50.844;4.418;2023-10-31T11:56:24;10.77;;;5.47;;
22336;SDS011;14992;50.844;4.418;2023-10-31T11:58:57;11.05;;;5.75;;
22336;SDS011;14992;50.844;4.418;2023-10-31T12:01:26;12.30;;;5.18;;
22336;SDS011;14992;50.844;4.418;2023-10-31T12:03:55;9.52;;;5.28;;
22336;SDS011;14992;50.844;4.418;2023-10-31T12:06:25;10.05;;;5.30;;
22336;SDS011;14992;50.844;4.418;2023-10-31T12:08:58;11.05;;;4.85;;
22336;SDS011;14992;50.844;4.418;2023-10-31T12:11:29;9.35;;;4.32;;
22336;SDS011;14992;50.844;4.418;2023-10-31T12:13:59;10.32;;;4.25;;
22336;SDS011;14992;50.844;4.418;2023-10-31T12:16:29;9.43;;;4.15;;
22336;SDS011;14992;50.844;4.418;2023-10-31T12:19:00;9.70;;;4.38;;
22336;SDS011;14992;50.844;4.418;2023-10-31T12:21:36;9.75;;;3.67;;
22336;SDS011;14992;50.844;4.418;2023-10-31T12:24:08;7.43;;;3.97;;
22336;SDS011;14992;50.844;4.418;2023-10-31T12:26:38;8.63;;;3.67;;
22336;SDS011;14992;50.844;4.418;2023-10-31T12:29:11;7.72;;;3.72;;
22336;SDS011;14992;50.844;4.418;2023-10-31T12:31:42;6.68;;;3.58;;
22336;SDS011;14992;50.844;4.418;2023-10-31T12:34:12;7.20;;;4.25;;
22336;SDS011;14992;50.844;4.418;2023-10-31T12:36:42;7.07;;;3.60;;
22336;SDS011;14992;50.844;4.418;2023-10-31T12:39:13;5.32;;;3.15;;
22336;SDS011;14992;50.844;4.418;2023-10-31T12:41:43;6.03;;;3.72;;
22336;SDS011;14992;50.844;4.418;2023-10-31T12:44:13;8.82;;;3.45;;
22336;SDS011;14992;50.844;4.418;2023-10-31T12:46:45;7.45;;;3.13;;
22336;SDS011;14992;50.844;4.418;2023-10-31T12:49:16;9.77;;;5.55;;
22336;SDS011;14992;50.844;4.418;2023-10-31T12:51:56;5.15;;;2.97;;
22336;SDS011;14992;50.844;4.418;2023-10-31T12:54:28;4.32;;;2.70;;
22336;SDS011;14992;50.844;4.418;2023-10-31T12:56:59;5.90;;;3.00;;
22336;SDS011;14992;50.844;4.418;2023-10-31T12:59:28;5.70;;;2.42;;
22336;SDS011;14992;50.844;4.418;2023-10-31T13:01:57;5.57;;;2.97;;
22336;SDS011;14992;50.844;4.418;2023-10-31T13:04:27;3.47;;;2.53;;
22336;SDS011;14992;50.844;4.418;2023-10-31T13:06:57;2.72;;;1.98;;
22336;SDS011;14992;50.844;4.418;2023-10-31T13:09:32;4.13;;;2.33;;
22336;SDS011;14992;50.844;4.418;2023-10-31T13:12:02;3.50;;;1.70;;
22336;SDS011;14992;50.844;4.418;2023-10-31T13:14:32;4.35;;;2.00;;
22336;SDS011;14992;50.844;4.418;2023-10-31T13:17:01;6.03;;;2.25;;
22336;SDS011;14992;50.844;4.418;2023-10-31T13:19:30;2.95;;;1.85;;
22336;SDS011;14992;50.844;4.418;2023-10-31T13:21:59;3.00;;;1.80;;
22336;SDS011;14992;50.844;4.418;2023-10-31T13:24:28;5.00;;;2.13;;
22336;SDS011;14992;50.844;4.418;2023-10-31T13:26:59;4.57;;;2.70;;
22336;SDS011;14992;50.844;4.418;2023-10-31T13:29:30;4.40;;;2.45;;
22336;SDS011;14992;50.844;4.418;2023-10-31T13:32:00;5.85;;;3.28;;
22336;SDS011;14992;50.844;4.418;2023-10-31T13:34:30;6.25;;;2.90;;
22336;SDS011;14992;50.844;4.418;2023-10-31T13:37:00;4.80;;;3.20;;
22336;SDS011;14992;50.844;4.418;2023-10-31T13:39:29;5.72;;;3.38;;
22336;SDS011;14992;50.844;4.418;2023-10-31T13:42:00;7.78;;;3.95;;
22336;SDS011;14992;50.844;4.418;2023-10-31T13:44:29;5.57;;;3.40;;
22336;SDS011;14992;50.844;4.418;2023-10-31T13:46:58;8.27;;;3.97;;
22336;SDS011;14992;50.844;4.418;2023-10-31T13:49:26;9.38;;;4.85;;
22336;SDS011;14992;50.844;4.418;2023-10-31T13:51:56;10.18;;;4.18;;
22336;SDS011;14992;50.844;4.418;2023-10-31T13:54:25;6.88;;;3.75;;
22336;SDS011;14992;50.844;4.418;2023-10-31T13:56:53;7.70;;;3.80;;
22336;SDS011;14992;50.844;4.418;2023-10-31T13:59:24;7.05;;;3.33;;
22336;SDS011;14992;50.844;4.418;2023-10-31T14:01:53;9.27;;;4.15;;
22336;SDS011;14992;50.844;4.418;2023-10-31T14:04:22;15.45;;;8.32;;
22336;SDS011;14992;50.844;4.418;2023-10-31T14:06:51;8.50;;;4.70;;
22336;SDS011;14992;50.844;4.418;2023-10-31T14:09:20;7.22;;;3.67;;
22336;SDS011;14992;50.844;4.418;2023-10-31T14:11:49;9.30;;;4.55;;
22336;SDS011;14992;50.844;4.418;2023-10-31T14:14:18;6.00;;;3.58;;
22336;SDS011;14992;50.844;4.418;2023-10-31T14:16:49;7.53;;;3.63;;
22336;SDS011;14992;50.844;4.418;2023-10-31T14:19:18;8.38;;;3.58;;
22336;SDS011;14992;50.844;4.418;2023-10-31T14:21:47;7.53;;;3.20;;
22336;SDS011;14992;50.844;4.418;2023-10-31T14:24:16;7.22;;;4.00;;
22336;SDS011;14992;50.844;4.418;2023-10-31T14:26:45;5.78;;;3.35;;
22336;SDS011;14992;50.844;4.418;2023-10-31T14:29:13;5.75;;;3.28;;
22336;SDS011;14992;50.844;4.418;2023-10-31T14:31:42;7.18;;;3.95;;
22336;SDS011;14992;50.844;4.418;2023-10-31T14:34:13;7.72;;;3.20;;
22336;SDS011;14992;50.844;4.418;2023-10-31T14:36:41;5.63;;;3.22;;
22336;SDS011;14992;50.844;4.418;2023-10-31T14:39:10;7.20;;;2.75;;
22336;SDS011;14992;50.844;4.418;2023-10-31T14:41:39;6.20;;;3.03;;
22336;SDS011;14992;50.844;4.418;2023-10-31T14:44:08;9.88;;;2.90;;
22336;SDS011;14992;50.844;4.418;2023-10-31T14:46:37;6.80;;;3.88;;
22336;SDS011;14992;50.844;4.418;2023-10-31T14:49:06;5.35;;;3.13;;
22336;SDS011;14992;50.844;4.418;2023-10-31T14:51:38;5.30;;;3.03;;
22336;SDS011;14992;50.844;4.418;2023-10-31T14:54:08;6.03;;;2.88;;
22336;SDS011;14992;50.844;4.418;2023-10-31T14:56:37;4.95;;;2.92;;
22336;SDS011;14992;50.844;4.418;2023-10-31T14:59:06;6.35;;;2.75;;
22336;SDS011;14992;50.844;4.418;2023-10-31T15:01:35;5.85;;;3.50;;
22336;SDS011;14992;50.844;4.418;2023-10-31T15:04:04;4.47;;;3.33;;
22336;SDS011;14992;50.844;4.418;2023-10-31T15:06:33;7.30;;;3.58;;